Time;durP1;ratioP1;P1;durP2;ratioP2;P2;SDS_P1;SDS_P2;PMS_P1;PMS_P2;Temp;Humidity;BMP_temperature;BMP_pressure;BME280_temperature;BME280_humidity;BME280_pressure;Samples;Min_cycle;Max_cycle;Signal;HPM_P1;HPM_P2
2021/06/10 00:01:45;;;;;;;0.10;0.10;;;;;;;;;;5076066;28;20085;-80
2021/06/10 00:04:11;;;;;;;0.10;0.10;;;;;;;;;;5088539;28;20035;-79
2021/06/10 00:06:37;;;;;;;0.10;0.10;;;;;;;;;;5081569;28;20142;-80
2021/06/10 00:09:04;;;;;;;7.30;0.80;;;;;;;;;;5087526;28;20024;-80
2021/06/10 00:11:30;;;;;;;0.10;0.10;;;;;;;;;;5082381;28;20367;-80
2021/06/10 00:13:56;;;;;;;0.30;0.30;;;;;;;;;;5086516;28;20030;-80
2021/06/10 00:16:22;;;;;;;0.10;0.10;;;;;;;;;;5082232;28;20017;-80
2021/06/10 00:18:51;;;;;;;0.10;0.10;;;;;;;;;;5086417;28;20020;-79
2021/06/10 00:21:17;;;;;;;0.10;0.10;;;;;;;;;;5082776;28;20133;-79
2021/06/10 00:23:43;;;;;;;0.45;0.45;;;;;;;;;;5085875;28;20023;-79
2021/06/10 00:26:09;;;;;;;0.10;0.10;;;;;;;;;;5084145;28;20382;-79
2021/06/10 00:28:35;;;;;;;0.10;0.10;;;;;;;;;;5084641;28;20486;-80
2021/06/10 00:31:03;;;;;;;0.10;0.10;;;;;;;;;;5086906;28;20428;-80
2021/06/10 00:33:29;;;;;;;0.40;0.40;;;;;;;;;;5082600;28;20033;-80
2021/06/10 00:35:55;;;;;;;0.73;0.73;;;;;;;;;;5086846;28;20056;-79
2021/06/10 00:38:21;;;;;;;0.17;0.17;;;;;;;;;;5082610;28;20027;-79
2021/06/10 00:40:47;;;;;;;0.70;0.70;;;;;;;;;;5087397;28;20461;-80
2021/06/10 00:43:13;;;;;;;0.10;0.10;;;;;;;;;;5081948;28;20046;-80
2021/06/10 00:45:39;;;;;;;0.10;0.10;;;;;;;;;;5086015;28;20301;-80
2021/06/10 00:48:06;;;;;;;0.10;0.10;;;;;;;;;;5090946;28;20024;-79
2021/06/10 00:50:33;;;;;;;0.10;0.10;;;;;;;;;;5090451;28;20067;-79
2021/06/10 00:52:59;;;;;;;0.10;0.10;;;;;;;;;;5085623;28;20024;-80
2021/06/10 00:55:26;;;;;;;0.10;0.10;;;;;;;;;;5091455;28;20025;-79
2021/06/10 00:57:52;;;;;;;0.43;0.43;;;;;;;;;;5085652;28;20051;-79
2021/06/10 01:00:19;;;;;;;0.10;0.10;;;;;;;;;;5091039;28;20527;-79
2021/06/10 01:02:45;;;;;;;0.10;0.10;;;;;;;;;;5085635;28;20032;-80
2021/06/10 01:05:11;;;;;;;0.63;0.63;;;;;;;;;;5092342;28;20218;-79
2021/06/10 01:07:40;;;;;;;0.20;0.20;;;;;;;;;;5084247;28;20031;-80
2021/06/10 01:10:09;;;;;;;0.10;0.10;;;;;;;;;;5092264;28;20466;-79
2021/06/10 01:12:45;;;;;;;0.20;0.20;;;;;;;;;;5084531;28;20050;-79
2021/06/10 01:15:14;;;;;;;0.10;0.10;;;;;;;;;;5073567;28;20453;-80
2021/06/10 01:17:44;;;;;;;1.65;1.17;;;;;;;;;;5086059;28;20028;-80
2021/06/10 01:20:15;;;;;;;0.50;0.40;;;;;;;;;;5074608;28;20111;-79
2021/06/10 01:22:57;;;;;;;0.10;0.10;;;;;;;;;;5089608;28;20464;-80
2021/06/10 01:25:35;;;;;;;1.63;1.48;;;;;;;;;;5090580;28;20107;-79
2021/06/10 01:28:02;;;;;;;1.08;1.00;;;;;;;;;;5083721;28;20081;-80
2021/06/10 01:30:31;;;;;;;3.30;1.85;;;;;;;;;;5090476;28;20428;-79
2021/06/10 01:33:07;;;;;;;3.00;1.27;;;;;;;;;;5084856;28;20020;-79
2021/06/10 01:35:36;;;;;;;2.30;1.70;;;;;;;;;;5089338;28;20077;-79
2021/06/10 01:38:02;;;;;;;0.63;0.63;;;;;;;;;;5082481;28;20032;-79
2021/06/10 01:40:29;;;;;;;0.80;0.80;;;;;;;;;;5074718;28;20467;-79
2021/06/10 01:42:56;;;;;;;0.25;0.22;;;;;;;;;;5082434;28;20054;-79
2021/06/10 01:45:22;;;;;;;0.10;0.10;;;;;;;;;;5076053;28;20055;-79
2021/06/10 01:47:48;;;;;;;2.28;1.17;;;;;;;;;;5089763;28;20027;-79
2021/06/10 01:50:15;;;;;;;0.80;0.77;;;;;;;;;;5091256;28;20122;-79
2021/06/10 01:52:42;;;;;;;0.10;0.10;;;;;;;;;;5083894;28;20024;-79
2021/06/10 01:55:08;;;;;;;;;;;;;;;;;;5092371;28;20872;-79
2021/06/10 01:57:36;;;;;;;0.13;0.13;;;;;;;;;;5081776;28;19965;-79
2021/06/10 02:00:02;;;;;;;0.60;0.32;;;;;;;;;;5091483;28;20024;-79
2021/06/10 02:02:28;;;;;;;6.82;0.80;;;;;;;;;;5080882;28;20028;-79
2021/06/10 02:04:55;;;;;;;0.32;0.32;;;;;;;;;;5092521;28;20016;-79
2021/06/10 02:07:21;;;;;;;1.40;1.30;;;;;;;;;;5082859;28;20028;-79
2021/06/10 02:09:47;;;;;;;4.03;0.73;;;;;;;;;;5071830;28;20021;-79
2021/06/10 02:12:14;;;;;;;0.60;0.60;;;;;;;;;;5084681;28;20031;-80
2021/06/10 02:14:42;;;;;;;1.30;1.20;;;;;;;;;;5072988;28;20016;-80
2021/06/10 02:17:08;;;;;;;5.13;3.13;;;;;;;;;;5079921;28;20162;-79
2021/06/10 02:19:36;;;;;;;4.18;1.38;;;;;;;;;;5092883;28;20024;-80
2021/06/10 02:22:02;;;;;;;1.52;1.05;;;;;;;;;;5086372;28;20447;-79
2021/06/10 02:24:28;;;;;;;11.98;4.15;;;;;;;;;;5072692;28;20497;-79
2021/06/10 02:26:54;;;;;;;1.50;1.13;;;;;;;;;;5078159;28;20032;-79
2021/06/10 02:29:20;;;;;;;3.73;1.40;;;;;;;;;;5092827;28;20020;-79
2021/06/10 02:31:46;;;;;;;0.30;0.30;;;;;;;;;;5081732;28;20051;-79
2021/06/10 02:34:13;;;;;;;15.73;1.92;;;;;;;;;;5072590;28;20077;-79
2021/06/10 02:36:39;;;;;;;0.30;0.30;;;;;;;;;;5077899;28;20021;-79
2021/06/10 02:39:08;;;;;;;4.85;1.17;;;;;;;;;;5089148;28;20122;-79
2021/06/10 02:41:35;;;;;;;1.55;1.42;;;;;;;;;;5081693;28;20120;-78
2021/06/10 02:44:02;;;;;;;0.63;0.63;;;;;;;;;;5089829;28;20020;-79
2021/06/10 02:46:29;;;;;;;0.93;0.93;;;;;;;;;;5082775;28;20063;-79
2021/06/10 02:48:55;;;;;;;0.45;0.45;;;;;;;;;;5088550;28;20024;-79
2021/06/10 02:51:23;;;;;;;0.20;0.20;;;;;;;;;;5084516;28;20040;-79
2021/06/10 02:53:50;;;;;;;0.10;0.10;;;;;;;;;;5076595;28;20077;-79
2021/06/10 02:56:17;;;;;;;0.20;0.20;;;;;;;;;;5074561;28;20060;-79
2021/06/10 02:58:43;;;;;;;;;;;;;;;;;;5085999;28;20031;-79
2021/06/10 03:01:09;;;;;;;0.17;0.17;;;;;;;;;;5086275;28;19915;-79
2021/06/10 03:03:36;;;;;;;0.10;0.10;;;;;;;;;;5072161;28;20028;-79
2021/06/10 03:06:02;;;;;;;0.65;0.65;;;;;;;;;;5077101;28;20024;-79
2021/06/10 03:08:29;;;;;;;0.52;0.35;;;;;;;;;;5084765;28;20101;-79
2021/06/10 03:10:58;;;;;;;1.00;0.90;;;;;;;;;;5085302;28;20115;-79
2021/06/10 03:13:24;;;;;;;7.10;2.15;;;;;;;;;;5079231;28;20052;-79
2021/06/10 03:15:50;;;;;;;1.95;1.55;;;;;;;;;;5076711;28;20016;-79
2021/06/10 03:18:16;;;;;;;0.70;0.70;;;;;;;;;;5082855;28;20580;-79
2021/06/10 03:20:43;;;;;;;2.90;1.50;;;;;;;;;;5088521;28;20020;-81
2021/06/10 03:23:09;;;;;;;2.00;0.85;;;;;;;;;;5081572;28;20493;-79
2021/06/10 03:25:36;;;;;;;1.27;1.13;;;;;;;;;;5085158;28;20023;-80
2021/06/10 03:28:02;;;;;;;;;;;;;;;;;;5081089;28;20020;-83
2021/06/10 03:30:28;;;;;;;0.20;0.20;;;;;;;;;;5070908;28;19908;-82
2021/06/10 03:32:55;;;;;;;1.57;1.40;;;;;;;;;;5079206;28;20447;-82
2021/06/10 03:35:22;;;;;;;0.55;0.55;;;;;;;;;;5072798;28;20030;-82
2021/06/10 03:37:47;;;;;;;;;;;;;;;;;;5082973;28;20166;-81
2021/06/10 03:40:14;;;;;;;1.45;0.80;;;;;;;;;;5089013;28;20002;-82
2021/06/10 03:42:40;;;;;;;2.00;1.38;;;;;;;;;;5080707;28;20035;-82
2021/06/10 03:45:07;;;;;;;1.63;1.52;;;;;;;;;;5089963;28;20073;-83
2021/06/10 03:47:34;;;;;;;1.50;1.20;;;;;;;;;;5080886;28;20027;-82
2021/06/10 03:50:01;;;;;;;0.10;0.10;;;;;;;;;;5090243;28;20164;-81
2021/06/10 03:52:27;;;;;;;0.75;0.75;;;;;;;;;;5079229;28;20043;-82
2021/06/10 03:54:54;;;;;;;1.00;0.95;;;;;;;;;;5071559;28;20502;-82
2021/06/10 03:57:21;;;;;;;2.10;1.85;;;;;;;;;;5079944;28;20030;-82
2021/06/10 03:59:47;;;;;;;1.75;0.50;;;;;;;;;;5090177;28;20494;-81
2021/06/10 04:02:13;;;;;;;0.10;0.10;;;;;;;;;;5082415;28;20039;-82
2021/06/10 04:04:39;;;;;;;0.10;0.10;;;;;;;;;;5069982;28;20031;-82
2021/06/10 04:07:05;;;;;;;0.10;0.10;;;;;;;;;;5076793;28;20021;-83
2021/06/10 04:09:31;;;;;;;0.20;0.20;;;;;;;;;;5090032;28;20115;-82
2021/06/10 04:11:57;;;;;;;0.10;0.10;;;;;;;;;;5078875;28;20037;-83
2021/06/10 04:14:23;;;;;;;0.32;0.32;;;;;;;;;;5070168;28;20228;-83
2021/06/10 04:16:49;;;;;;;0.20;0.20;;;;;;;;;;5076214;28;20025;-81
2021/06/10 04:19:15;;;;;;;0.10;0.10;;;;;;;;;;5090555;28;20479;-83
2021/06/10 04:21:41;;;;;;;0.30;0.30;;;;;;;;;;5079717;28;20173;-83
2021/06/10 04:24:07;;;;;;;0.10;0.10;;;;;;;;;;5092108;28;20078;-86
2021/06/10 04:26:33;;;;;;;0.20;0.20;;;;;;;;;;5084731;28;20029;-81
2021/06/10 04:28:59;;;;;;;0.90;0.87;;;;;;;;;;5090879;28;20081;-81
2021/06/10 04:31:25;;;;;;;0.10;0.10;;;;;;;;;;5086905;28;20029;-82
2021/06/10 04:33:52;;;;;;;0.10;0.10;;;;;;;;;;5091077;28;20035;-82
2021/06/10 04:36:18;;;;;;;0.30;0.30;;;;;;;;;;5087255;28;20040;-81
2021/06/10 04:38:44;;;;;;;0.28;0.28;;;;;;;;;;5089628;28;20031;-83
2021/06/10 04:41:10;;;;;;;0.10;0.10;;;;;;;;;;5090745;28;20028;-80
2021/06/10 04:43:36;;;;;;;0.10;0.10;;;;;;;;;;5081205;28;20119;-78
2021/06/10 04:46:03;;;;;;;0.13;0.13;;;;;;;;;;5080240;28;20674;-82
2021/06/10 04:48:29;;;;;;;0.20;0.20;;;;;;;;;;5080324;28;20028;-82
2021/06/10 04:50:55;;;;;;;0.10;0.10;;;;;;;;;;5079791;28;20440;-82
2021/06/10 04:53:23;;;;;;;1.03;0.43;;;;;;;;;;5085132;28;20021;-80
2021/06/10 04:55:49;;;;;;;0.10;0.10;;;;;;;;;;5088324;28;20039;-82
2021/06/10 04:58:15;;;;;;;0.10;0.10;;;;;;;;;;5082219;28;20493;-81
2021/06/10 05:00:41;;;;;;;0.20;0.20;;;;;;;;;;5078478;28;20032;-83
2021/06/10 05:03:08;;;;;;;1.45;1.05;;;;;;;;;;5085696;28;20035;-81
2021/06/10 05:05:34;;;;;;;0.20;0.20;;;;;;;;;;5090916;28;20542;-79
2021/06/10 05:08:00;;;;;;;0.10;0.10;;;;;;;;;;5085452;28;20063;-80
2021/06/10 05:10:26;;;;;;;0.10;0.10;;;;;;;;;;5089994;28;20031;-80
2021/06/10 05:12:52;;;;;;;0.20;0.20;;;;;;;;;;5083025;28;20462;-82
2021/06/10 05:15:18;;;;;;;0.40;0.40;;;;;;;;;;5075301;28;20078;-80
2021/06/10 05:17:45;;;;;;;0.10;0.10;;;;;;;;;;5083042;28;20021;-80
2021/06/10 05:20:11;;;;;;;0.30;0.30;;;;;;;;;;5074898;28;20075;-80
2021/06/10 05:22:37;;;;;;;0.10;0.10;;;;;;;;;;5084117;28;20055;-81
2021/06/10 05:25:04;;;;;;;0.47;0.47;;;;;;;;;;5092861;28;20378;-80
2021/06/10 05:27:30;;;;;;;0.93;0.85;;;;;;;;;;5080847;28;20085;-80
2021/06/10 05:29:56;;;;;;;0.82;0.55;;;;;;;;;;5092984;28;20028;-81
2021/06/10 05:32:22;;;;;;;0.10;0.10;;;;;;;;;;5083031;28;20016;-81
2021/06/10 05:34:48;;;;;;;0.10;0.10;;;;;;;;;;5093131;28;20028;-82
2021/06/10 05:37:14;;;;;;;0.10;0.10;;;;;;;;;;5081710;28;20028;-80
2021/06/10 05:39:41;;;;;;;0.30;0.30;;;;;;;;;;5093966;28;20111;-81
2021/06/10 05:42:07;;;;;;;0.10;0.10;;;;;;;;;;5081357;28;20086;-81
2021/06/10 05:44:33;;;;;;;0.13;0.13;;;;;;;;;;5092847;28;20024;-81
2021/06/10 05:46:59;;;;;;;0.20;0.20;;;;;;;;;;5078771;28;20408;-81
2021/06/10 05:49:25;;;;;;;0.43;0.40;;;;;;;;;;5091909;28;20274;-85
2021/06/10 05:51:51;;;;;;;2.10;1.23;;;;;;;;;;5079729;28;20079;-81
2021/06/10 05:54:18;;;;;;;2.10;1.30;;;;;;;;;;5071160;28;20020;-81
2021/06/10 05:56:44;;;;;;;0.10;0.10;;;;;;;;;;5081992;28;20111;-81
2021/06/10 05:59:10;;;;;;;1.63;1.02;;;;;;;;;;5073996;28;20107;-82
2021/06/10 06:01:36;;;;;;;0.43;0.40;;;;;;;;;;5081062;28;20555;-83
2021/06/10 06:04:02;;;;;;;0.63;0.40;;;;;;;;;;5075848;28;20028;-82
2021/06/10 06:06:28;;;;;;;1.08;0.90;;;;;;;;;;5077366;28;20046;-82
2021/06/10 06:08:54;;;;;;;0.70;0.63;;;;;;;;;;5089243;28;20436;-82
2021/06/10 06:11:20;;;;;;;0.10;0.10;;;;;;;;;;5085436;28;20036;-82
2021/06/10 06:13:47;;;;;;;1.50;1.20;;;;;;;;;;5077503;28;20063;-83
2021/06/10 06:16:14;;;;;;;0.70;0.70;;;;;;;;;;5076777;28;20047;-82
2021/06/10 06:18:41;;;;;;;0.10;0.10;;;;;;;;;;5087074;28;20382;-83
2021/06/10 06:21:07;;;;;;;5.20;1.67;;;;;;;;;;5087077;28;20118;-82
2021/06/10 06:23:33;;;;;;;1.58;1.42;;;;;;;;;;5086093;28;20020;-83
2021/06/10 06:26:00;;;;;;;0.65;0.43;;;;;;;;;;5086891;28;20070;-84
2021/06/10 06:28:26;;;;;;;0.20;0.20;;;;;;;;;;5085090;28;20017;-82
2021/06/10 06:30:52;;;;;;;0.38;0.38;;;;;;;;;;5088749;28;20150;-81
2021/06/10 06:33:19;;;;;;;2.25;1.17;;;;;;;;;;5083970;28;20028;-83
2021/06/10 06:35:45;;;;;;;0.10;0.10;;;;;;;;;;5087893;28;20016;-83
2021/06/10 06:38:12;;;;;;;4.20;1.80;;;;;;;;;;5082226;28;20039;-83
2021/06/10 06:40:38;;;;;;;0.20;0.20;;;;;;;;;;5087680;28;20494;-82
2021/06/10 06:43:05;;;;;;;0.85;0.70;;;;;;;;;;5082415;28;20088;-83
2021/06/10 06:45:33;;;;;;;2.45;0.70;;;;;;;;;;5088909;28;20017;-80
2021/06/10 06:47:59;;;;;;;1.92;0.82;;;;;;;;;;5083404;28;20024;-82
2021/06/10 06:50:25;;;;;;;2.40;0.40;;;;;;;;;;5087230;28;20033;-83
2021/06/10 06:52:51;;;;;;;0.10;0.10;;;;;;;;;;5083307;28;20031;-82
2021/06/10 06:55:17;;;;;;;0.28;0.28;;;;;;;;;;5087887;28;20028;-83
2021/06/10 06:57:43;;;;;;;0.10;0.10;;;;;;;;;;5082900;28;20027;-83
2021/06/10 07:00:10;;;;;;;0.10;0.10;;;;;;;;;;5088895;28;20032;-83
2021/06/10 07:02:36;;;;;;;0.10;0.10;;;;;;;;;;5081558;28;20036;-82
2021/06/10 07:05:02;;;;;;;0.10;0.10;;;;;;;;;;5089587;28;20081;-81
2021/06/10 07:07:28;;;;;;;0.10;0.10;;;;;;;;;;5079401;28;20503;-82
2021/06/10 07:09:54;;;;;;;0.10;0.10;;;;;;;;;;5091067;28;20035;-84
2021/06/10 07:12:20;;;;;;;0.50;0.50;;;;;;;;;;5080544;28;20028;-84
2021/06/10 07:14:46;;;;;;;0.10;0.10;;;;;;;;;;5090875;28;20398;-84
2021/06/10 07:17:12;;;;;;;0.10;0.10;;;;;;;;;;5079165;28;20063;-83
2021/06/10 07:19:38;;;;;;;0.20;0.20;;;;;;;;;;5091696;28;20430;-83
2021/06/10 07:22:04;;;;;;;0.50;0.50;;;;;;;;;;5080195;28;20040;-82
2021/06/10 07:24:30;;;;;;;3.50;1.03;;;;;;;;;;5090552;28;20128;-81
2021/06/10 07:26:56;;;;;;;1.45;1.35;;;;;;;;;;5082215;28;20093;-82
2021/06/10 07:29:23;;;;;;;0.28;0.28;;;;;;;;;;5070304;28;20025;-85
2021/06/10 07:31:49;;;;;;;0.20;0.20;;;;;;;;;;5076714;28;20021;-84
2021/06/10 07:34:15;;;;;;;1.15;0.43;;;;;;;;;;5089390;28;20123;-84
2021/06/10 07:36:41;;;;;;;1.20;1.13;;;;;;;;;;5081120;28;20025;-84
2021/06/10 07:39:08;;;;;;;1.10;1.00;;;;;;;;;;5089498;28;20558;-86
2021/06/10 07:41:35;;;;;;;0.20;0.20;;;;;;;;;;5082715;28;20482;-83
2021/06/10 07:44:01;;;;;;;0.43;0.43;;;;;;;;;;5078305;28;20017;-83
2021/06/10 07:46:27;;;;;;;1.73;0.88;;;;;;;;;;5075322;28;20111;-84
2021/06/10 07:48:53;;;;;;;0.10;0.10;;;;;;;;;;5084157;28;20074;-82
2021/06/10 07:51:19;;;;;;;0.67;0.43;;;;;;;;;;5081947;28;20024;-84
2021/06/10 07:53:45;;;;;;;0.20;0.20;;;;;;;;;;5073245;28;20027;-83
2021/06/10 07:56:11;;;;;;;0.10;0.10;;;;;;;;;;5073901;28;20032;-83
2021/06/10 07:58:37;;;;;;;0.10;0.10;;;;;;;;;;5082017;28;20055;-82
2021/06/10 08:01:04;;;;;;;0.10;0.10;;;;;;;;;;5079971;28;20039;-83
2021/06/10 08:03:30;;;;;;;0.47;0.38;;;;;;;;;;5075517;28;20534;-84
2021/06/10 08:05:58;;;;;;;0.10;0.10;;;;;;;;;;5068551;28;20062;-82
2021/06/10 08:08:24;;;;;;;0.40;0.40;;;;;;;;;;5074783;28;20035;-82
2021/06/10 08:10:50;;;;;;;5.32;2.55;;;;;;;;;;5072061;28;20032;-83
2021/06/10 08:13:18;;;;;;;1.35;0.20;;;;;;;;;;5078121;28;20099;-83
2021/06/10 08:15:45;;;;;;;0.30;0.30;;;;;;;;;;5071977;28;20020;-83
2021/06/10 08:18:11;;;;;;;0.10;0.10;;;;;;;;;;5079252;28;20107;-83
2021/06/10 08:20:37;;;;;;;0.00;0.00;;;;;;;;;;5084732;28;20032;-83
2021/06/10 08:23:04;;;;;;;0.10;0.10;;;;;;;;;;5079176;28;20386;-83
2021/06/10 08:25:30;;;;;;;;;;;;;;;;;;5069441;28;20034;-82
2021/06/10 08:27:57;;;;;;;0.93;0.70;;;;;;;;;;5076687;28;19904;-84
2021/06/10 08:30:24;;;;;;;0.20;0.13;;;;;;;;;;5069257;28;20028;-83
2021/06/10 08:32:50;;;;;;;;;;;;;;;;;;5080984;28;20109;-82
2021/06/10 08:35:16;;;;;;;0.10;0.10;;;;;;;;;;5069774;28;19973;-82
2021/06/10 08:37:43;;;;;;;0.10;0.10;;;;;;;;;;5074702;28;20031;-83
2021/06/10 08:40:09;;;;;;;0.98;0.55;;;;;;;;;;5085084;28;20028;-84
2021/06/10 08:42:39;;;;;;;0.65;0.40;;;;;;;;;;5077551;28;20040;-85
2021/06/10 08:45:10;;;;;;;1.13;0.70;;;;;;;;;;5071239;28;20041;-84
2021/06/10 08:47:37;;;;;;;0.10;0.10;;;;;;;;;;5077796;28;20036;-84
2021/06/10 08:50:04;;;;;;;1.52;0.63;;;;;;;;;;5086717;28;20177;-82
2021/06/10 08:52:32;;;;;;;1.40;1.05;;;;;;;;;;5076540;28;20116;-83
2021/06/10 08:54:58;;;;;;;0.10;0.10;;;;;;;;;;5049856;28;20036;-84
2021/06/10 08:57:24;;;;;;;0.10;0.10;;;;;;;;;;5077960;28;20024;-83
2021/06/10 08:59:50;;;;;;;0.70;0.60;;;;;;;;;;5068047;28;20028;-83
2021/06/10 09:02:16;;;;;;;0.50;0.50;;;;;;;;;;5075784;28;20298;-82
2021/06/10 09:04:42;;;;;;;0.90;0.25;;;;;;;;;;5088526;28;20113;-82
2021/06/10 09:07:10;;;;;;;0.30;0.30;;;;;;;;;;5072590;28;20470;-82
2021/06/10 09:09:37;;;;;;;0.75;0.75;;;;;;;;;;5087518;28;20032;-83
2021/06/10 09:12:08;;;;;;;0.20;0.20;;;;;;;;;;5083025;28;20912;-83
2021/06/10 09:14:53;;;;;;;0.88;0.73;;;;;;;;;;5070999;28;20548;-82
2021/06/10 09:17:31;;;;;;;0.10;0.10;;;;;;;;;;5079046;28;20077;-83
2021/06/10 09:19:57;;;;;;;0.00;0.00;;;;;;;;;;5089958;28;20020;-83
2021/06/10 09:22:34;;;;;;;0.10;0.10;;;;;;;;;;5078613;28;20036;-84
2021/06/10 09:25:20;;;;;;;0.03;0.03;;;;;;;;;;5090071;28;20032;-82
2021/06/10 09:27:53;;;;;;;1.20;0.50;;;;;;;;;;5074372;28;20025;-83
2021/06/10 09:30:36;;;;;;;0.10;0.10;;;;;;;;;;5056626;28;20335;-83
2021/06/10 09:33:05;;;;;;;0.57;0.57;;;;;;;;;;5077716;28;20028;-83
2021/06/10 09:35:33;;;;;;;0.63;0.63;;;;;;;;;;5073515;28;20023;-83
2021/06/10 09:38:00;;;;;;;0.10;0.10;;;;;;;;;;5082169;28;20486;-83
2021/06/10 09:40:26;;;;;;;0.10;0.10;;;;;;;;;;5087491;28;20029;-84
2021/06/10 09:42:52;;;;;;;0.10;0.10;;;;;;;;;;5081918;28;20028;-83
2021/06/10 09:45:19;;;;;;;0.10;0.10;;;;;;;;;;5072534;28;20027;-83
2021/06/10 09:47:47;;;;;;;1.25;1.10;;;;;;;;;;5076088;28;20031;-84
2021/06/10 09:50:16;;;;;;;0.08;0.08;;;;;;;;;;5086945;28;20094;-84
2021/06/10 09:52:56;;;;;;;0.20;0.20;;;;;;;;;;5074863;28;20023;-86
2021/06/10 09:55:33;;;;;;;0.38;0.25;;;;;;;;;;5055200;28;20165;-83
2021/06/10 09:58:06;;;;;;;1.15;1.15;;;;;;;;;;5081418;28;20398;-82
2021/06/10 10:00:33;;;;;;;0.10;0.10;;;;;;;;;;5085700;28;20028;-83
2021/06/10 10:02:59;;;;;;;1.35;0.52;;;;;;;;;;5080307;28;20039;-84
2021/06/10 10:05:25;;;;;;;0.10;0.10;;;;;;;;;;5083077;28;20039;-83
2021/06/10 10:07:55;;;;;;;0.00;0.00;;;;;;;;;;5063706;28;20487;-85
2021/06/10 10:10:22;;;;;;;0.00;0.00;;;;;;;;;;5056408;28;20054;-82
2021/06/10 10:12:50;;;;;;;0.88;0.35;;;;;;;;;;5081829;28;20020;-83
2021/06/10 10:15:17;;;;;;;0.10;0.10;;;;;;;;;;5073245;28;20541;-82
2021/06/10 10:17:42;;;;;;;;;;;;;;;;;;5081894;28;20033;-82
2021/06/10 10:20:11;;;;;;;0.00;0.00;;;;;;;;;;5086829;28;21498;-85
2021/06/10 10:22:37;;;;;;;0.00;0.00;;;;;;;;;;5080948;28;20487;-84
2021/06/10 10:25:04;;;;;;;0.15;0.15;;;;;;;;;;5072849;28;20020;-83
2021/06/10 10:27:30;;;;;;;0.00;0.00;;;;;;;;;;5075706;28;20025;-82
2021/06/10 10:29:57;;;;;;;0.20;0.20;;;;;;;;;;5070140;28;20056;-82
2021/06/10 10:32:30;;;;;;;0.10;0.10;;;;;;;;;;5080399;28;20414;-82
2021/06/10 10:35:32;;;;;;;0.03;0.03;;;;;;;;;;5090686;28;20476;-85
2021/06/10 10:37:58;;;;;;;0.10;0.10;;;;;;;;;;5066096;28;20134;-84
2021/06/10 10:40:27;;;;;;;0.45;0.45;;;;;;;;;;5073549;28;20108;-85
2021/06/10 10:42:55;;;;;;;2.47;0.88;;;;;;;;;;5083803;28;20372;-83
2021/06/10 10:45:21;;;;;;;0.10;0.10;;;;;;;;;;5089191;28;20024;-82
2021/06/10 10:47:56;;;;;;;0.00;0.00;;;;;;;;;;5083116;28;20028;-85
2021/06/10 10:50:51;;;;;;;1.45;0.20;;;;;;;;;;5088663;28;20509;-82
2021/06/10 10:53:19;;;;;;;1.65;0.93;;;;;;;;;;5078269;28;20028;-86
2021/06/10 10:55:46;;;;;;;0.45;0.45;;;;;;;;;;5086614;28;20024;-85
2021/06/10 10:58:19;;;;;;;0.10;0.10;;;;;;;;;;5080861;28;20035;-85
2021/06/10 11:00:45;;;;;;;0.00;0.00;;;;;;;;;;5076382;28;20032;-79
2021/06/10 11:03:18;;;;;;;0.10;0.10;;;;;;;;;;5081537;28;20020;-80
2021/06/10 11:05:45;;;;;;;0.10;0.10;;;;;;;;;;5088576;28;20470;-82
2021/06/10 11:08:11;;;;;;;0.10;0.10;;;;;;;;;;5083079;28;20028;-82
2021/06/10 11:10:39;;;;;;;0.25;0.22;;;;;;;;;;5088405;28;20027;-84
2021/06/10 11:13:18;;;;;;;0.08;0.08;;;;;;;;;;5083148;28;20027;-84
2021/06/10 11:15:44;;;;;;;0.10;0.10;;;;;;;;;;5088329;28;20485;-83
2021/06/10 11:18:11;;;;;;;0.60;0.50;;;;;;;;;;5082823;28;20024;-83
2021/06/10 11:20:36;;;;;;;;;;;;;;;;;;5088567;28;20392;-83
2021/06/10 11:23:20;;;;;;;0.03;0.03;;;;;;;;;;5071377;28;20019;-79
2021/06/10 11:25:47;;;;;;;0.28;0.28;;;;;;;;;;5063999;28;20025;-84
2021/06/10 11:28:14;;;;;;;0.00;0.00;;;;;;;;;;5078836;28;20099;-84
2021/06/10 11:30:41;;;;;;;0.10;0.10;;;;;;;;;;5084057;28;20062;-85
2021/06/10 11:33:08;;;;;;;0.32;0.32;;;;;;;;;;5075272;28;20586;-84
2021/06/10 11:35:34;;;;;;;0.20;0.20;;;;;;;;;;5070723;28;20145;-85
2021/06/10 11:38:02;;;;;;;0.10;0.10;;;;;;;;;;5076089;28;20047;-85
2021/06/10 11:40:28;;;;;;;0.10;0.10;;;;;;;;;;5069055;28;20029;-86
2021/06/10 11:42:54;;;;;;;0.10;0.10;;;;;;;;;;5078449;28;20035;-84
2021/06/10 11:45:26;;;;;;;0.10;0.10;;;;;;;;;;5077257;28;20020;-84
2021/06/10 11:47:53;;;;;;;0.20;0.20;;;;;;;;;;5061817;28;20104;-84
2021/06/10 11:50:28;;;;;;;6.13;0.88;;;;;;;;;;5069197;28;20055;-82
2021/06/10 11:52:56;;;;;;;0.00;0.00;;;;;;;;;;5074651;28;20192;-84
2021/06/10 11:55:22;;;;;;;0.00;0.00;;;;;;;;;;5082990;28;20024;-85
2021/06/10 11:57:55;;;;;;;0.00;0.00;;;;;;;;;;5079224;28;20043;-88
2021/06/10 12:00:26;;;;;;;0.10;0.10;;;;;;;;;;5084029;28;20032;-87
2021/06/10 12:02:56;;;;;;;0.10;0.10;;;;;;;;;;5077897;28;20372;-85
2021/06/10 12:05:22;;;;;;;0.10;0.10;;;;;;;;;;5076600;28;20049;-83
2021/06/10 12:07:49;;;;;;;0.52;0.52;;;;;;;;;;5075737;28;20040;-83
2021/06/10 12:10:19;;;;;;;0.45;0.30;;;;;;;;;;5060501;28;20137;-84
2021/06/10 12:12:47;;;;;;;0.10;0.10;;;;;;;;;;5066301;28;20566;-86
2021/06/10 12:15:29;;;;;;;0.20;0.20;;;;;;;;;;5059550;28;20032;-84
2021/06/10 12:17:59;;;;;;;0.30;0.30;;;;;;;;;;5062660;28;20063;-83
2021/06/10 12:20:30;;;;;;;0.20;0.20;;;;;;;;;;5067023;28;20089;-83
2021/06/10 12:22:56;;;;;;;0.35;0.35;;;;;;;;;;5075460;28;20028;-83
2021/06/10 12:25:24;;;;;;;0.30;0.30;;;;;;;;;;5061237;28;20089;-86
2021/06/10 12:27:51;;;;;;;0.30;0.30;;;;;;;;;;5065544;28;20048;-82
2021/06/10 12:30:20;;;;;;;1.48;1.15;;;;;;;;;;5061384;28;20024;-86
2021/06/10 12:32:46;;;;;;;0.43;0.43;;;;;;;;;;5064963;28;20427;-89
2021/06/10 12:35:13;;;;;;;0.20;0.20;;;;;;;;;;5067911;28;20490;-87
2021/06/10 12:37:39;;;;;;;0.28;0.28;;;;;;;;;;5072259;28;20068;-89
2021/06/10 12:40:05;;;;;;;0.30;0.30;;;;;;;;;;5051380;28;20112;-87
2021/06/10 12:42:31;;;;;;;0.50;0.50;;;;;;;;;;5078649;28;20032;-88
2021/06/10 12:44:57;;;;;;;0.32;0.32;;;;;;;;;;5070246;28;20078;-86
2021/06/10 12:47:35;;;;;;;0.50;0.50;;;;;;;;;;5080419;28;20390;-85
2021/06/10 12:50:01;;;;;;;0.63;0.63;;;;;;;;;;5090337;28;20136;-85
2021/06/10 12:52:32;;;;;;;0.50;0.50;;;;;;;;;;5080956;28;20035;-86
2021/06/10 12:55:02;;;;;;;0.40;0.40;;;;;;;;;;5090549;28;20044;-84
2021/06/10 12:57:33;;;;;;;0.10;0.10;;;;;;;;;;5080520;28;20036;-85
2021/06/10 13:00:00;;;;;;;0.30;0.30;;;;;;;;;;5090524;28;20017;-85
2021/06/10 13:02:30;;;;;;;0.45;0.45;;;;;;;;;;5079106;28;20062;-85
2021/06/10 13:05:02;;;;;;;0.30;0.30;;;;;;;;;;5089003;28;20024;-84
2021/06/10 13:07:29;;;;;;;0.30;0.30;;;;;;;;;;5094129;28;20067;-83
2021/06/10 13:09:56;;;;;;;0.35;0.35;;;;;;;;;;5052502;28;20025;-85
2021/06/10 13:12:27;;;;;;;0.22;0.22;;;;;;;;;;5093632;28;20045;-84
2021/06/10 13:15:19;;;;;;;0.25;0.25;;;;;;;;;;5067098;28;20028;-82
2021/06/10 13:17:48;;;;;;;0.30;0.30;;;;;;;;;;5080218;28;20499;-85
2021/06/10 13:20:15;;;;;;;0.35;0.35;;;;;;;;;;5088711;28;20479;-84
2021/06/10 13:22:42;;;;;;;0.40;0.40;;;;;;;;;;5080342;28;20508;-82
2021/06/10 13:25:09;;;;;;;0.60;0.60;;;;;;;;;;5089568;28;20020;-82
2021/06/10 13:27:35;;;;;;;0.40;0.40;;;;;;;;;;5080809;28;20036;-82
2021/06/10 13:30:03;;;;;;;0.52;0.52;;;;;;;;;;5090047;28;20031;-83
2021/06/10 13:32:34;;;;;;;0.90;0.90;;;;;;;;;;5078117;28;20082;-83
2021/06/10 13:37:33;;;;;;;0.50;0.50;;;;;;;;;;5078349;28;20448;-82
2021/06/10 13:39:59;;;;;;;0.60;0.60;;;;;;;;;;5089820;28;20627;-83
2021/06/10 13:42:28;;;;;;;0.70;0.70;;;;;;;;;;5079714;28;20067;-81
2021/06/10 13:44:54;;;;;;;0.50;0.50;;;;;;;;;;5089911;28;20051;-81
2021/06/10 13:47:20;;;;;;;0.47;0.47;;;;;;;;;;5082648;28;20104;-82
2021/06/10 13:49:47;;;;;;;0.20;0.20;;;;;;;;;;5070447;28;20060;-82
2021/06/10 13:52:13;;;;;;;0.85;0.85;;;;;;;;;;5077747;28;20044;-83
2021/06/10 13:54:39;;;;;;;0.10;0.10;;;;;;;;;;5091258;28;20020;-81
2021/06/10 13:57:06;;;;;;;0.20;0.20;;;;;;;;;;5082307;28;20027;-82
2021/06/10 13:59:33;;;;;;;0.20;0.20;;;;;;;;;;5070670;28;20574;-81
2021/06/10 14:01:59;;;;;;;0.30;0.30;;;;;;;;;;5085292;28;20024;-80
2021/06/10 14:04:25;;;;;;;0.25;0.25;;;;;;;;;;5069601;28;20031;-80
2021/06/10 14:06:51;;;;;;;0.20;0.20;;;;;;;;;;5076233;28;20036;-80
2021/06/10 14:09:17;;;;;;;0.30;0.30;;;;;;;;;;5090277;28;20052;-82
2021/06/10 14:11:43;;;;;;;4.57;1.65;;;;;;;;;;5082767;28;20206;-81
2021/06/10 14:14:09;;;;;;;0.32;0.32;;;;;;;;;;5072242;28;20431;-81
2021/06/10 14:16:37;;;;;;;0.13;0.13;;;;;;;;;;5078736;28;20040;-80
2021/06/10 14:19:05;;;;;;;0.10;0.10;;;;;;;;;;5090764;28;20080;-82
2021/06/10 14:21:31;;;;;;;0.20;0.20;;;;;;;;;;5074678;28;20025;-81
2021/06/10 14:23:57;;;;;;;0.10;0.10;;;;;;;;;;5083840;28;20085;-82
2021/06/10 14:26:24;;;;;;;0.10;0.10;;;;;;;;;;5082205;28;20592;-82
2021/06/10 14:28:51;;;;;;;0.10;0.10;;;;;;;;;;5086337;28;20191;-81
2021/06/10 14:34:03;;;;;;;0.32;0.32;;;;;;;;;;5072972;28;20071;-81
2021/06/10 14:36:29;;;;;;;0.10;0.10;;;;;;;;;;5075959;28;20032;-81
2021/06/10 14:38:56;;;;;;;0.10;0.10;;;;;;;;;;5086590;28;20023;-81
2021/06/10 14:41:22;;;;;;;0.30;0.30;;;;;;;;;;5082802;28;20032;-81
2021/06/10 14:43:49;;;;;;;0.40;0.40;;;;;;;;;;5084390;28;20024;-83
2021/06/10 14:46:15;;;;;;;;;;;;;;;;;;5084213;28;20028;-79
2021/06/10 14:48:42;;;;;;;0.05;0.05;;;;;;;;;;5068638;28;19908;-81
2021/06/10 14:51:08;;;;;;;;;;;;;;;;;;5074563;28;20074;-81
2021/06/10 14:53:34;;;;;;;0.10;0.10;;;;;;;;;;5076324;28;20420;-80